Time;durP1;ratioP1;P1;durP2;ratioP2;P2;SDS_P1;SDS_P2;PMS_P1;PMS_P2;Temp;Humidity;BMP_temperature;BMP_pressure;BME280_temperature;BME280_humidity;BME280_pressure;Samples;Min_cycle;Max_cycle;Signal;HPM_P1;HPM_P2
2021/12/25 00:01:41;;;;;;;3.97;1.23;;;-0.10;99.90;;;;;;5077460;28;20032;-58
2021/12/25 00:04:08;;;;;;;4.85;0.93;;;-0.10;99.90;;;;;;5077023;28;20040;-58
2021/12/25 00:06:34;;;;;;;8.07;1.77;;;-0.20;99.90;;;;;;5077414;28;20041;-58
2021/12/25 00:09:00;;;;;;;5.55;1.40;;;-0.30;99.90;;;;;;5077366;28;20071;-57
2021/12/25 00:11:26;;;;;;;6.43;1.10;;;-0.30;99.90;;;;;;5077061;28;20075;-57
2021/12/25 00:13:52;;;;;;;7.28;1.13;;;-0.40;99.90;;;;;;5076807;28;20056;-57
2021/12/25 00:16:18;;;;;;;6.15;1.20;;;-0.40;99.90;;;;;;5077128;28;20052;-57
2021/12/25 00:18:44;;;;;;;6.97;1.90;;;-0.50;99.90;;;;;;5077150;28;20071;-58
2021/12/25 00:21:09;;;;;;;7.90;1.25;;;-0.40;99.90;;;;;;5076986;28;20052;-58
2021/12/25 00:23:37;;;;;;;4.95;1.08;;;-0.50;99.90;;;;;;5077214;28;20078;-58
2021/12/25 00:26:12;;;;;;;8.88;1.48;;;-0.50;99.90;;;;;;5075614;28;20052;-58
2021/12/25 00:36:10;;;;;;;6.80;1.17;;;-0.60;99.90;;;;;;5076794;28;20055;-58
2021/12/25 00:38:37;;;;;;;4.90;1.05;;;-0.70;99.90;;;;;;5077127;28;20045;-57
2021/12/25 00:41:06;;;;;;;9.70;1.30;;;-0.70;99.90;;;;;;5077084;28;20391;-58
2021/12/25 00:43:32;;;;;;;4.78;1.23;;;-0.70;99.90;;;;;;5075463;28;20096;-57
2021/12/25 00:46:00;;;;;;;5.63;1.30;;;-0.70;99.90;;;;;;5078894;28;20082;-58
2021/12/25 00:48:26;;;;;;;4.75;1.00;;;-0.80;99.90;;;;;;5080809;28;20048;-57
2021/12/25 00:50:52;;;;;;;4.55;1.33;;;-0.80;99.90;;;;;;5091073;28;20129;-57
2021/12/25 00:53:18;;;;;;;5.88;1.00;;;-0.80;99.90;;;;;;5100863;28;20044;-57
2021/12/25 00:55:44;;;;;;;7.88;2.05;;;-0.90;99.90;;;;;;5081741;28;20044;-58
2021/12/25 00:58:10;;;;;;;4.28;0.95;;;-0.90;99.90;;;;;;5080553;28;20060;-58
2021/12/25 01:00:36;;;;;;;5.60;1.23;;;-1.00;99.90;;;;;;5080949;28;20385;-58
2021/12/25 01:03:02;;;;;;;9.15;1.67;;;-1.00;99.90;;;;;;5080391;28;20052;-58
2021/12/25 01:05:28;;;;;;;4.55;1.00;;;-1.00;99.90;;;;;;5080314;28;20044;-58
2021/12/25 01:07:53;;;;;;;5.53;1.23;;;-1.10;99.90;;;;;;5078546;28;20044;-59
2021/12/25 01:10:20;;;;;;;4.25;1.05;;;-1.10;99.90;;;;;;5079954;28;20070;-58
2021/12/25 01:15:23;;;;;;;9.55;1.83;;;-1.10;99.90;;;;;;5080196;28;20095;-59
2021/12/25 01:31:21;;;;;;;5.57;1.30;;;-1.30;99.90;;;;;;5020380;28;20061;-59
2021/12/25 01:39:03;;;;;;;8.30;1.70;;;-1.40;99.90;;;;;;5079682;28;20360;-58
2021/12/25 01:49:42;;;;;;;3.30;0.95;;;-1.50;99.90;;;;;;5079978;28;20056;-59
2021/12/25 01:52:09;;;;;;;4.78;1.23;;;-1.60;99.90;;;;;;5099670;28;20057;-59
2021/12/25 01:54:35;;;;;;;3.33;1.00;;;-1.60;99.90;;;;;;5090035;28;20036;-59
2021/12/25 01:57:01;;;;;;;4.15;1.00;;;-1.60;99.90;;;;;;5077920;28;20045;-59
2021/12/25 01:59:27;;;;;;;4.25;0.88;;;-1.60;99.90;;;;;;5077592;28;20052;-60
2021/12/25 02:01:53;;;;;;;7.45;1.13;;;-1.60;99.90;;;;;;5078966;28;20049;-59
2021/12/25 02:04:19;;;;;;;6.22;1.00;;;-1.60;99.90;;;;;;5079132;28;20450;-58
2021/12/25 02:06:45;;;;;;;3.65;0.80;;;-1.70;99.90;;;;;;5079290;28;20082;-59
2021/12/25 02:09:11;;;;;;;5.15;0.95;;;-1.80;99.90;;;;;;5079127;28;20040;-59
2021/12/25 02:11:37;;;;;;;3.55;1.00;;;-1.80;99.90;;;;;;5078833;28;20056;-59
2021/12/25 02:14:03;;;;;;;2.45;0.80;;;-1.70;99.90;;;;;;5077115;28;20107;-59
2021/12/25 02:16:39;;;;;;;7.82;0.88;;;-1.80;99.90;;;;;;5077338;28;20377;-59
2021/12/25 02:19:11;;;;;;;4.15;0.88;;;-1.90;99.90;;;;;;5078969;28;20044;-57
2021/12/25 02:21:39;;;;;;;2.37;0.80;;;-1.90;99.90;;;;;;5060708;28;20671;-59
2021/12/25 02:24:07;;;;;;;3.03;0.80;;;-1.90;99.90;;;;;;5077464;28;20063;-59
2021/12/25 02:26:35;;;;;;;1.95;0.70;;;-2.00;99.90;;;;;;5078973;28;20124;-58
2021/12/25 02:29:01;;;;;;;5.50;0.70;;;-1.90;99.90;;;;;;5078305;28;20110;-58
2021/12/25 02:31:27;;;;;;;1.98;0.70;;;-2.00;99.90;;;;;;5078391;28;20071;-59
2021/12/25 02:33:53;;;;;;;3.97;0.80;;;-2.00;99.90;;;;;;5076852;28;20053;-59
2021/12/25 02:36:19;;;;;;;2.85;0.68;;;-2.10;99.90;;;;;;5078498;28;20419;-59
2021/12/25 02:38:46;;;;;;;5.60;0.90;;;-2.10;99.90;;;;;;5078441;28;20819;-59
2021/12/25 02:41:12;;;;;;;3.25;0.88;;;-2.10;99.90;;;;;;5078333;28;20045;-59
2021/12/25 02:43:39;;;;;;;3.92;0.70;;;-2.10;99.90;;;;;;5078020;28;20056;-59
2021/12/25 02:46:05;;;;;;;2.05;0.60;;;-2.00;99.90;;;;;;5076780;28;20052;-60
2021/12/25 02:48:34;;;;;;;1.70;0.60;;;-2.10;99.90;;;;;;5076695;28;20053;-59
2021/12/25 02:51:00;;;;;;;5.05;1.90;;;-2.10;99.90;;;;;;5089529;28;20055;-59
2021/12/25 02:53:26;;;;;;;1.02;0.57;;;-2.20;99.90;;;;;;5098373;28;20039;-62
2021/12/25 02:55:52;;;;;;;2.25;0.50;;;-2.20;99.90;;;;;;5079135;28;20149;-59
2021/12/25 02:58:19;;;;;;;1.25;0.60;;;-2.30;99.90;;;;;;5078185;28;20049;-59
2021/12/25 03:00:52;;;;;;;2.60;0.80;;;-2.20;99.90;;;;;;5078137;28;20044;-61
2021/12/25 03:03:18;;;;;;;2.05;0.50;;;-2.20;99.90;;;;;;5076379;28;20625;-59
2021/12/25 03:05:44;;;;;;;1.10;0.60;;;-2.20;99.90;;;;;;5077380;28;20497;-58
2021/12/25 03:08:12;;;;;;;1.35;0.50;;;-2.30;99.90;;;;;;5075974;28;20131;-59
2021/12/25 03:10:39;;;;;;;1.13;0.60;;;-2.30;99.90;;;;;;5077947;28;20576;-58
2021/12/25 03:15:46;;;;;;;1.83;1.02;;;-2.20;99.90;;;;;;5077747;28;20080;-58
2021/12/25 03:18:24;;;;;;;2.90;0.90;;;-2.30;99.90;;;;;;5076185;28;20059;-58
2021/12/25 03:20:53;;;;;;;2.72;0.70;;;-2.40;99.90;;;;;;5077293;28;20136;-58
2021/12/25 03:23:21;;;;;;;1.65;0.68;;;-2.40;99.90;;;;;;5077634;28;20037;-58
2021/12/25 03:25:49;;;;;;;2.05;0.70;;;-2.40;99.90;;;;;;5077430;28;20040;-58
2021/12/25 03:28:18;;;;;;;1.95;0.68;;;-2.40;99.90;;;;;;5077523;28;20095;-58
2021/12/25 03:30:44;;;;;;;2.72;0.50;;;-2.40;99.90;;;;;;5077170;28;20523;-58
2021/12/25 03:33:14;;;;;;;14.35;2.75;;;-2.50;99.90;;;;;;5077411;28;20040;-58
2021/12/25 03:35:40;;;;;;;1.50;0.50;;;-2.60;99.90;;;;;;5077094;28;20492;-58
2021/12/25 03:38:10;;;;;;;1.05;0.60;;;-2.50;99.90;;;;;;5077255;28;20046;-58
2021/12/25 03:40:36;;;;;;;1.20;0.60;;;-2.50;99.90;;;;;;5076098;28;20106;-58
2021/12/25 03:43:03;;;;;;;2.35;0.80;;;-2.50;99.90;;;;;;5077230;28;20052;-58
2021/12/25 03:45:31;;;;;;;2.60;1.00;;;-2.60;99.90;;;;;;5077375;28;20045;-58
2021/12/25 03:53:37;;;;;;;2.20;0.68;;;-2.60;99.90;;;;;;5097292;28;20055;-58
2021/12/25 03:58:52;;;;;;;1.23;0.50;;;-2.70;99.90;;;;;;5057015;28;20060;-58
2021/12/25 04:01:41;;;;;;;3.30;0.70;;;-2.70;99.90;;;;;;5057061;28;20043;-58
2021/12/25 04:04:16;;;;;;;1.50;0.47;;;-2.70;99.90;;;;;;5056760;28;20100;-58
2021/12/25 04:06:58;;;;;;;1.58;0.60;;;-2.80;99.90;;;;;;5056032;28;20060;-59
2021/12/25 04:09:26;;;;;;;4.25;1.08;;;-2.90;99.90;;;;;;5055550;28;20090;-58
2021/12/25 04:11:54;;;;;;;3.50;0.70;;;-2.80;99.90;;;;;;5056731;28;20045;-58
2021/12/25 04:14:20;;;;;;;3.72;0.70;;;-2.80;99.90;;;;;;5054950;28;20052;-58
2021/12/25 04:16:46;;;;;;;1.73;0.60;;;-2.80;99.90;;;;;;5055143;28;20041;-59
2021/12/25 04:19:12;;;;;;;2.75;0.60;;;-2.80;99.90;;;;;;5059108;28;20071;-59
2021/12/25 04:21:47;;;;;;;4.60;0.50;;;-2.90;99.90;;;;;;5063794;28;20052;-58
2021/12/25 04:24:13;;;;;;;2.75;0.70;;;-2.90;99.90;;;;;;5063943;28;20416;-57
2021/12/25 04:26:41;;;;;;;1.75;0.55;;;-2.90;99.90;;;;;;5064057;28;20037;-59
2021/12/25 04:29:32;;;;;;;3.22;0.68;;;-2.90;99.90;;;;;;5063636;28;20045;-58
2021/12/25 05:01:48;;;;;;;2.50;0.60;;;-3.00;99.90;;;;;;5063180;28;20051;-59
2021/12/25 05:04:24;;;;;;;2.60;0.88;;;-3.10;99.90;;;;;;5063384;28;20041;-59
2021/12/25 05:06:50;;;;;;;1.17;0.40;;;-3.10;99.90;;;;;;5063506;28;20045;-59
2021/12/25 05:09:16;;;;;;;1.30;0.60;;;-3.10;99.90;;;;;;5063582;28;20074;-59
2021/12/25 05:11:43;;;;;;;2.35;0.68;;;-3.10;99.90;;;;;;5061732;28;20084;-59
2021/12/25 05:14:09;;;;;;;1.35;0.50;;;-3.20;99.90;;;;;;5062834;28;20065;-58
2021/12/25 05:16:35;;;;;;;3.25;0.75;;;-3.20;99.90;;;;;;5063047;28;20052;-60
2021/12/25 05:19:00;;;;;;;2.38;0.68;;;-3.20;99.90;;;;;;5063447;28;20049;-59
2021/12/25 05:21:26;;;;;;;3.40;0.70;;;-3.10;99.90;;;;;;5061804;28;20045;-58
2021/12/25 05:23:52;;;;;;;2.60;0.70;;;-3.10;99.90;;;;;;5063430;28;20096;-58
2021/12/25 05:26:18;;;;;;;3.45;0.70;;;-3.10;99.90;;;;;;5063278;28;20055;-58
2021/12/25 05:28:52;;;;;;;3.95;1.17;;;-3.10;99.90;;;;;;5063035;28;20096;-55
2021/12/25 05:31:18;;;;;;;1.83;0.70;;;-3.10;99.90;;;;;;5061122;28;20057;-58
2021/12/25 05:33:43;;;;;;;2.50;0.73;;;-3.10;99.90;;;;;;5059767;28;20126;-58
2021/12/25 05:36:10;;;;;;;2.25;0.60;;;-3.10;99.90;;;;;;5060000;28;20067;-58
2021/12/25 05:38:37;;;;;;;2.00;0.65;;;-3.10;99.90;;;;;;5060117;28;20049;-58
2021/12/25 05:41:05;;;;;;;2.47;0.63;;;-3.10;99.90;;;;;;5060052;28;20064;-58
2021/12/25 05:43:31;;;;;;;1.92;0.50;;;-3.20;99.90;;;;;;5060209;28;20044;-58
2021/12/25 05:45:57;;;;;;;5.43;0.70;;;-3.20;99.90;;;;;;5058573;28;20041;-58
2021/12/25 05:48:22;;;;;;;3.55;0.90;;;-3.20;99.90;;;;;;5059703;28;20060;-59
2021/12/25 05:50:48;;;;;;;3.13;0.75;;;-3.20;99.90;;;;;;5079674;28;20055;-58
2021/12/25 05:53:15;;;;;;;2.63;0.60;;;-3.30;99.90;;;;;;5099917;28;20157;-59
2021/12/25 05:55:41;;;;;;;3.92;0.95;;;-3.20;99.90;;;;;;5079817;28;20053;-58
2021/12/25 05:58:07;;;;;;;1.13;0.57;;;-3.20;99.90;;;;;;5079701;28;20048;-58
2021/12/25 06:00:36;;;;;;;3.55;0.65;;;-3.20;99.90;;;;;;5079697;28;20080;-59
2021/12/25 06:03:03;;;;;;;3.13;0.57;;;-3.20;99.90;;;;;;5079152;28;20045;-58
2021/12/25 06:05:29;;;;;;;1.88;0.63;;;-3.10;99.90;;;;;;5078079;28;20381;-58
2021/12/25 06:07:55;;;;;;;6.75;1.17;;;-3.10;99.90;;;;;;5078904;28;20047;-58
2021/12/25 06:10:22;;;;;;;3.78;0.60;;;-3.20;99.90;;;;;;5079321;28;20531;-58
2021/12/25 06:12:49;;;;;;;2.20;0.75;;;-3.10;99.90;;;;;;5060829;28;20113;-58
2021/12/25 06:15:19;;;;;;;2.60;0.73;;;-3.10;99.90;;;;;;5079491;28;20117;-58
2021/12/25 06:17:45;;;;;;;3.95;0.70;;;-3.10;99.90;;;;;;5079228;28;20091;-58
2021/12/25 06:20:11;;;;;;;3.53;0.88;;;-3.20;99.90;;;;;;5079229;28;20074;-58
2021/12/25 06:22:37;;;;;;;3.28;0.80;;;-3.20;99.90;;;;;;5077660;28;20056;-58
2021/12/25 06:25:07;;;;;;;4.32;0.70;;;-3.20;99.90;;;;;;5078652;28;20107;-58
2021/12/25 06:27:33;;;;;;;1.80;0.80;;;-3.10;99.90;;;;;;5079082;28;20051;-58
2021/12/25 06:29:59;;;;;;;2.78;0.65;;;-3.10;99.90;;;;;;5078827;28;20068;-59
2021/12/25 06:32:25;;;;;;;1.70;0.63;;;-3.20;99.90;;;;;;5078932;28;20105;-58
2021/12/25 06:34:51;;;;;;;2.30;0.70;;;-3.20;99.90;;;;;;5079208;28;20051;-58
2021/12/25 06:37:18;;;;;;;1.73;0.70;;;-3.20;99.90;;;;;;5078388;28;20048;-58
2021/12/25 06:39:45;;;;;;;2.83;0.60;;;-3.20;99.90;;;;;;5076108;28;20164;-58
2021/12/25 06:42:11;;;;;;;2.65;0.60;;;-3.20;99.90;;;;;;5074561;28;20059;-58
2021/12/25 06:44:37;;;;;;;4.85;0.98;;;-3.30;99.90;;;;;;5074913;28;20112;-58
2021/12/25 06:47:04;;;;;;;2.85;0.90;;;-3.30;99.90;;;;;;5075394;28;20036;-60
2021/12/25 06:49:29;;;;;;;1.92;0.70;;;-3.20;99.90;;;;;;5075572;28;20056;-59
2021/12/25 06:51:55;;;;;;;3.40;0.60;;;-3.20;99.90;;;;;;5095177;28;20071;-58
2021/12/25 06:54:23;;;;;;;1.95;1.02;;;-3.20;99.90;;;;;;5090117;28;20036;-58
2021/12/25 06:56:49;;;;;;;1.80;0.65;;;-3.30;99.90;;;;;;5073529;28;20634;-59
2021/12/25 06:59:16;;;;;;;2.38;0.70;;;-3.20;99.90;;;;;;5074373;28;20048;-59
2021/12/25 07:01:43;;;;;;;1.35;0.50;;;-3.30;99.90;;;;;;5074857;28;20912;-58
2021/12/25 07:04:09;;;;;;;5.30;0.82;;;-3.30;99.90;;;;;;5074020;28;20055;-58
2021/12/25 07:06:36;;;;;;;3.95;0.80;;;-3.30;99.90;;;;;;5074713;28;20981;-58
2021/12/25 07:09:05;;;;;;;6.60;0.85;;;-3.30;99.90;;;;;;5074611;28;20048;-58
2021/12/25 07:11:32;;;;;;;4.20;1.00;;;-3.30;99.90;;;;;;5074571;28;20079;-59
2021/12/25 07:14:00;;;;;;;4.25;0.95;;;-3.40;99.90;;;;;;5074107;28;20072;-58
2021/12/25 07:16:26;;;;;;;5.82;0.80;;;-3.40;99.90;;;;;;5072740;28;20052;-58
2021/12/25 07:18:52;;;;;;;2.70;1.73;;;-3.40;99.90;;;;;;5073175;28;20106;-57
2021/12/25 07:21:18;;;;;;;2.30;0.70;;;-3.40;99.90;;;;;;5072896;28;20136;-59
2021/12/25 07:23:44;;;;;;;1.80;0.60;;;-3.30;99.90;;;;;;5056644;28;20036;-60
2021/12/25 07:26:09;;;;;;;2.53;0.60;;;-3.40;99.90;;;;;;5074248;28;20048;-59
2021/12/25 07:28:35;;;;;;;3.08;1.00;;;-3.40;99.90;;;;;;5073982;28;20052;-58
2021/12/25 07:31:02;;;;;;;3.42;0.98;;;-3.40;99.90;;;;;;5074074;28;20046;-59
2021/12/25 07:33:29;;;;;;;3.60;0.70;;;-3.40;99.90;;;;;;5072498;28;20045;-60
2021/12/25 07:35:56;;;;;;;4.25;0.70;;;-3.40;99.90;;;;;;5073792;28;20045;-58
2021/12/25 07:38:23;;;;;;;4.28;1.10;;;-3.40;99.90;;;;;;5072799;28;20076;-59
2021/12/25 07:40:49;;;;;;;2.90;0.80;;;-3.40;99.90;;;;;;5072449;28;20078;-59
2021/12/25 07:43:15;;;;;;;5.63;0.90;;;-3.50;99.90;;;;;;5073890;28;20096;-58
2021/12/25 07:45:41;;;;;;;2.90;0.85;;;-3.40;99.90;;;;;;5073930;28;20048;-58
2021/12/25 07:48:07;;;;;;;2.95;0.70;;;-3.40;99.90;;;;;;5073780;28;20048;-60
2021/12/25 07:50:35;;;;;;;4.05;0.80;;;-3.40;99.90;;;;;;5079922;28;20048;-59
2021/12/25 07:53:01;;;;;;;3.13;0.98;;;-3.50;99.90;;;;;;5093888;28;20040;-59
2021/12/25 07:55:31;;;;;;;6.32;0.90;;;-3.40;99.90;;;;;;5078772;28;20083;-58
2021/12/25 07:57:58;;;;;;;3.58;0.77;;;-3.50;99.90;;;;;;5072822;28;20046;-58
2021/12/25 08:00:24;;;;;;;3.20;0.82;;;-3.50;99.90;;;;;;5073944;28;20060;-59
2021/12/25 08:02:50;;;;;;;2.80;0.80;;;-3.50;99.90;;;;;;5072372;28;20082;-59
2021/12/25 08:05:16;;;;;;;6.80;1.00;;;-3.50;99.90;;;;;;5073815;28;20487;-59
2021/12/25 08:07:42;;;;;;;4.93;0.85;;;-3.50;99.90;;;;;;5073457;28;20085;-59
2021/12/25 08:10:13;;;;;;;1.95;0.70;;;-3.50;99.90;;;;;;5073524;28;20153;-59
2021/12/25 08:12:46;;;;;;;3.42;1.02;;;-3.50;99.90;;;;;;5070159;28;20057;-60
2021/12/25 08:15:14;;;;;;;3.75;0.90;;;-3.50;99.90;;;;;;5065526;28;20118;-62
2021/12/25 08:17:40;;;;;;;4.45;1.00;;;-3.60;99.90;;;;;;5066447;28;20044;-59
2021/12/25 08:20:08;;;;;;;3.13;1.15;;;-3.50;99.90;;;;;;5066472;28;20106;-60
2021/12/25 08:22:35;;;;;;;3.30;1.00;;;-3.60;99.90;;;;;;5065961;28;20842;-60
2021/12/25 08:25:01;;;;;;;3.33;1.00;;;-3.60;99.90;;;;;;5065851;28;20083;-61
2021/12/25 08:27:27;;;;;;;3.05;1.00;;;-3.50;99.90;;;;;;5066047;28;20052;-61
2021/12/25 08:29:53;;;;;;;5.40;1.13;;;-3.50;99.90;;;;;;5065984;28;21686;-59
2021/12/25 08:32:19;;;;;;;2.90;0.90;;;-3.50;99.90;;;;;;5065113;28;20068;-60
2021/12/25 08:34:45;;;;;;;3.08;0.85;;;-3.50;99.90;;;;;;5066473;28;20125;-61
2021/12/25 08:37:12;;;;;;;2.30;0.82;;;-3.50;99.90;;;;;;5066217;28;20049;-60
2021/12/25 08:39:38;;;;;;;2.35;0.93;;;-3.40;99.90;;;;;;5066289;28;20048;-61
2021/12/25 08:42:05;;;;;;;2.55;0.80;;;-3.40;99.90;;;;;;5065692;28;20819;-61
2021/12/25 08:44:42;;;;;;;4.13;0.90;;;-3.30;99.90;;;;;;5065645;28;20127;-61
2021/12/25 08:47:12;;;;;;;3.28;0.88;;;-3.40;99.90;;;;;;5065661;28;20210;-60
2021/12/25 08:49:40;;;;;;;2.05;0.70;;;-3.40;99.90;;;;;;5065933;28;20169;-63
2021/12/25 08:52:12;;;;;;;3.60;1.30;;;-3.20;99.90;;;;;;5064393;28;20167;-60
2021/12/25 08:54:38;;;;;;;1.92;0.70;;;-3.20;99.90;;;;;;5066144;28;20045;-61
2021/12/25 08:57:06;;;;;;;4.28;0.95;;;-3.20;99.90;;;;;;5066193;28;20040;-59
2021/12/25 08:59:33;;;;;;;3.92;0.85;;;-3.30;99.90;;;;;;5066001;28;20796;-60
2021/12/25 09:02:03;;;;;;;3.83;1.15;;;-2.90;99.90;;;;;;5065921;28;20041;-60
2021/12/25 09:04:29;;;;;;;3.90;1.30;;;-3.30;99.90;;;;;;5065735;28;20052;-59
2021/12/25 09:06:55;;;;;;;2.55;1.00;;;-3.20;99.90;;;;;;5069461;28;20045;-60
2021/12/25 09:09:21;;;;;;;3.08;0.88;;;-3.10;99.90;;;;;;5070037;28;20401;-58
2021/12/25 09:11:47;;;;;;;3.88;0.95;;;-3.10;99.90;;;;;;5070289;28;20079;-61
2021/12/25 09:14:13;;;;;;;3.08;1.10;;;-3.10;99.90;;;;;;5068382;28;20075;-58
2021/12/25 09:16:40;;;;;;;5.68;1.10;;;-3.00;99.90;;;;;;5068925;28;20056;-58
2021/12/25 09:19:06;;;;;;;4.63;0.82;;;-3.00;99.90;;;;;;5068073;28;20072;-58
2021/12/25 09:21:32;;;;;;;6.05;0.93;;;-3.00;99.90;;;;;;5069050;28;20490;-58
2021/12/25 09:23:57;;;;;;;3.10;1.23;;;-3.10;99.90;;;;;;5069515;28;20052;-57
2021/12/25 09:26:23;;;;;;;3.38;0.90;;;-3.00;99.90;;;;;;5069171;28;20040;-58
2021/12/25 09:28:49;;;;;;;5.70;1.98;;;-3.00;99.90;;;;;;5069011;28;20064;-59
2021/12/25 09:31:15;;;;;;;4.45;1.20;;;-2.80;99.90;;;;;;5069348;28;20051;-58
2021/12/25 09:33:41;;;;;;;3.42;1.02;;;-2.80;99.90;;;;;;5068785;28;20044;-59
2021/12/25 09:36:07;;;;;;;4.20;1.05;;;-2.80;99.90;;;;;;5069129;28;20040;-58
2021/12/25 09:38:34;;;;;;;4.40;1.10;;;-2.90;99.90;;;;;;5069106;28;20051;-57
2021/12/25 09:41:01;;;;;;;5.95;1.70;;;-2.80;99.90;;;;;;5068943;28;20056;-57
2021/12/25 09:43:28;;;;;;;5.53;1.50;;;-2.70;99.90;;;;;;5069112;28;20063;-58
2021/12/25 09:45:54;;;;;;;2.80;1.10;;;-2.70;99.90;;;;;;5067531;28;20044;-58
2021/12/25 09:48:21;;;;;;;4.97;1.20;;;-2.80;99.90;;;;;;5069345;28;20048;-58
2021/12/25 09:50:47;;;;;;;4.00;0.90;;;-2.70;99.90;;;;;;5069063;28;20995;-57
2021/12/25 09:53:15;;;;;;;2.40;0.77;;;-2.70;99.90;;;;;;5069354;28;20049;-58
2021/12/25 09:55:42;;;;;;;2.75;0.93;;;-2.70;99.90;;;;;;5069344;28;20044;-59
2021/12/25 09:58:08;;;;;;;3.90;1.10;;;-2.70;99.90;;;;;;5069367;28;20072;-58
2021/12/25 10:00:39;;;;;;;6.22;1.58;;;-2.60;99.90;;;;;;5069092;28;20040;-59
2021/12/25 10:03:05;;;;;;;2.65;1.13;;;-2.50;99.90;;;;;;5068790;28;20185;-58
2021/12/25 10:05:37;;;;;;;2.90;0.80;;;-2.60;99.90;;;;;;5069853;28;20050;-58
2021/12/25 10:08:10;;;;;;;2.55;0.90;;;-2.50;99.90;;;;;;5069994;28;20053;-58
2021/12/25 10:10:36;;;;;;;2.55;0.63;;;-2.50;99.90;;;;;;5069828;28;20101;-59
2021/12/25 10:13:03;;;;;;;4.90;0.80;;;-2.50;99.90;;;;;;5068793;28;20056;-58
2021/12/25 10:15:29;;;;;;;6.03;1.10;;;-2.50;99.90;;;;;;5068885;28;20431;-58
2021/12/25 10:17:59;;;;;;;5.05;1.27;;;-2.40;99.90;;;;;;5068150;28;20111;-58
2021/12/25 10:20:30;;;;;;;3.17;0.90;;;-2.50;99.90;;;;;;5068703;28;20095;-58
2021/12/25 10:23:22;;;;;;;3.20;0.90;;;-2.40;99.90;;;;;;5068673;28;20053;-58
2021/12/25 10:25:59;;;;;;;4.70;0.90;;;-2.40;99.90;;;;;;5071494;28;20040;-58
2021/12/25 10:28:37;;;;;;;4.75;1.00;;;-2.30;99.90;;;;;;5075073;28;20062;-57
2021/12/25 10:31:07;;;;;;;4.35;0.80;;;-2.40;99.90;;;;;;5074808;28;20503;-58
2021/12/25 10:33:36;;;;;;;2.75;0.75;;;-2.40;99.90;;;;;;5074335;28;20769;-58
2021/12/25 10:36:09;;;;;;;2.22;0.90;;;-2.30;99.90;;;;;;5074872;28;20045;-57
2021/12/25 10:38:35;;;;;;;5.93;1.52;;;-2.30;99.90;;;;;;5074771;28;20049;-58
2021/12/25 10:41:09;;;;;;;4.90;1.02;;;-2.30;99.90;;;;;;5074531;28;20048;-58
2021/12/25 10:43:40;;;;;;;5.40;1.08;;;-2.30;99.90;;;;;;5074628;28;20867;-58
2021/12/25 10:46:07;;;;;;;4.80;1.23;;;-2.30;99.90;;;;;;5075636;28;20047;-58
2021/12/25 10:48:33;;;;;;;4.13;1.00;;;-2.30;99.90;;;;;;5075605;28;20439;-58
2021/12/25 10:50:59;;;;;;;4.40;1.15;;;-2.30;99.90;;;;;;5086644;28;20048;-58
2021/12/25 10:53:31;;;;;;;4.15;1.10;;;-2.20;99.90;;;;;;5095680;28;20044;-58
2021/12/25 10:56:10;;;;;;;6.32;1.10;;;-2.10;99.90;;;;;;5077448;28;20049;-59
2021/12/25 10:58:37;;;;;;;2.22;0.73;;;-2.00;99.90;;;;;;5075253;28;20087;-59
2021/12/25 11:01:06;;;;;;;4.05;1.35;;;-2.00;99.90;;;;;;5075224;28;20455;-59
2021/12/25 11:03:38;;;;;;;7.40;1.00;;;-2.00;99.90;;;;;;5074377;28;20078;-59
2021/12/25 11:06:17;;;;;;;5.22;0.90;;;-1.90;99.90;;;;;;5073633;28;20048;-59
2021/12/25 11:08:44;;;;;;;4.72;1.38;;;-1.90;99.90;;;;;;5074940;28;20056;-59
2021/12/25 11:11:19;;;;;;;4.80;1.10;;;-1.80;99.90;;;;;;5075068;28;20072;-59
2021/12/25 11:13:49;;;;;;;4.65;0.90;;;-1.80;99.90;;;;;;5074735;28;20454;-58
2021/12/25 11:16:27;;;;;;;3.65;1.00;;;-1.70;99.90;;;;;;5074218;28;20740;-59
2021/12/25 11:21:52;;;;;;;2.72;0.90;;;-1.60;99.90;;;;;;5074696;28;20056;-59
2021/12/25 11:24:26;;;;;;;3.97;0.85;;;-1.60;99.90;;;;;;5074517;28;20070;-59
2021/12/25 11:27:04;;;;;;;3.83;1.45;;;-1.60;99.90;;;;;;5073980;28;20112;-58
2021/12/25 11:29:33;;;;;;;5.82;1.40;;;-1.50;99.90;;;;;;5074182;28;20080;-58
2021/12/25 11:32:03;;;;;;;4.05;0.90;;;-1.50;99.90;;;;;;5074784;28;20084;-59
2021/12/25 11:34:30;;;;;;;5.03;1.10;;;-1.40;99.90;;;;;;5074603;28;20181;-59
2021/12/25 11:36:57;;;;;;;5.40;1.20;;;-1.30;99.90;;;;;;5074655;28;20044;-59
2021/12/25 11:39:25;;;;;;;5.35;1.10;;;-1.40;99.90;;;;;;5074942;28;20138;-59
2021/12/25 11:41:56;;;;;;;3.80;0.98;;;-1.40;99.90;;;;;;5074350;28;20525;-65
2021/12/25 11:44:41;;;;;;;4.55;1.08;;;-1.40;99.90;;;;;;5074124;28;20199;-59
2021/12/25 11:47:28;;;;;;;4.22;0.90;;;-1.30;99.90;;;;;;5074271;28;20679;-58
2021/12/25 11:49:56;;;;;;;5.57;1.30;;;-1.40;99.90;;;;;;5076749;28;20044;-59
2021/12/25 11:52:26;;;;;;;4.32;1.10;;;-1.30;99.90;;;;;;5093930;28;20044;-59
2021/12/25 11:55:17;;;;;;;5.28;1.20;;;-1.30;99.90;;;;;;5084452;28;20095;-59
2021/12/25 11:58:00;;;;;;;4.57;1.20;;;-1.30;99.90;;;;;;5074739;28;20481;-58
2021/12/25 12:00:40;;;;;;;8.57;1.17;;;-1.30;99.90;;;;;;5074374;28;20058;-59
2021/12/25 12:03:06;;;;;;;4.18;1.02;;;-1.30;99.90;;;;;;5074359;28;20571;-58
2021/12/25 12:05:35;;;;;;;2.97;1.02;;;-1.30;99.90;;;;;;5074361;28;20052;-59
2021/12/25 12:08:11;;;;;;;7.95;1.60;;;-1.40;99.90;;;;;;5074358;28;20037;-59
2021/12/25 12:10:45;;;;;;;4.20;1.27;;;-1.40;99.90;;;;;;5073997;28;20061;-59
2021/12/25 12:13:23;;;;;;;3.78;1.20;;;-1.40;99.90;;;;;;5073428;28;20060;-59
2021/12/25 12:15:55;;;;;;;4.18;1.15;;;-1.40;99.90;;;;;;5073200;28;20053;-59
2021/12/25 12:18:31;;;;;;;3.35;0.98;;;-1.40;99.90;;;;;;5073372;28;20067;-59
2021/12/25 12:21:15;;;;;;;5.18;1.40;;;-1.40;99.90;;;;;;5073911;28;20056;-59
2021/12/25 12:26:57;;;;;;;4.50;1.33;;;-1.40;99.90;;;;;;5073574;28;20082;-60
2021/12/25 12:29:38;;;;;;;3.58;1.20;;;-1.40;99.90;;;;;;5064121;28;20425;-59
2021/12/25 12:32:05;;;;;;;3.88;1.30;;;-1.30;99.90;;;;;;5073703;28;20056;-58
2021/12/25 12:34:36;;;;;;;4.57;1.13;;;-1.30;99.90;;;;;;5066081;28;20094;-59
2021/12/25 12:37:13;;;;;;;4.82;1.35;;;-1.30;99.90;;;;;;5066626;28;20699;-61
2021/12/25 12:40:04;;;;;;;5.78;2.10;;;-1.40;99.90;;;;;;5066120;28;20112;-61
2021/12/25 12:45:09;;;;;;;5.82;1.30;;;-1.40;99.90;;;;;;5071897;28;20089;-62
2021/12/25 12:47:35;;;;;;;4.90;1.60;;;-1.40;99.90;;;;;;5071266;28;20040;-62
2021/12/25 12:50:01;;;;;;;3.85;1.40;;;-1.30;99.90;;;;;;5072151;28;20106;-62
2021/12/25 12:52:38;;;;;;;5.68;1.30;;;-1.30;99.90;;;;;;5072408;28;20127;-62
2021/12/25 12:55:09;;;;;;;6.32;1.10;;;-1.30;99.90;;;;;;5072022;28;20052;-62
2021/12/25 12:57:41;;;;;;;4.47;1.17;;;-1.30;99.90;;;;;;5072698;28;20040;-62
2021/12/25 13:00:18;;;;;;;7.63;1.55;;;-1.30;99.90;;;;;;5070754;28;20052;-62
2021/12/25 13:02:47;;;;;;;4.20;1.10;;;-1.30;99.90;;;;;;5070825;28;20055;-60
2021/12/25 13:05:16;;;;;;;3.85;1.23;;;-1.30;99.90;;;;;;5069774;28;20067;-62
2021/12/25 13:07:45;;;;;;;4.75;1.50;;;-1.20;99.90;;;;;;5071364;28;20052;-60
2021/12/25 13:10:21;;;;;;;5.88;1.30;;;-1.30;99.90;;;;;;5070270;28;20544;-62
2021/12/25 13:12:49;;;;;;;5.13;1.30;;;-1.30;99.90;;;;;;5070235;28;20060;-62
2021/12/25 13:15:32;;;;;;;3.72;1.40;;;-1.30;99.90;;;;;;5072080;28;20052;-62
2021/12/25 13:18:00;;;;;;;4.35;1.23;;;-1.30;99.90;;;;;;5071319;28;20103;-62
2021/12/25 13:20:38;;;;;;;4.10;1.08;;;-1.20;99.90;;;;;;5070102;28;20044;-62
2021/12/25 13:23:08;;;;;;;5.03;1.58;;;-1.30;99.90;;;;;;5069356;28;20096;-62
2021/12/25 13:25:34;;;;;;;7.25;1.75;;;-1.20;99.90;;;;;;5069908;28;20094;-62
2021/12/25 13:28:03;;;;;;;6.75;1.80;;;-1.20;99.90;;;;;;5068223;28;20053;-62
2021/12/25 13:30:31;;;;;;;4.57;1.50;;;-1.30;99.90;;;;;;5068448;28;20504;-62
2021/12/25 13:33:11;;;;;;;5.45;2.10;;;-1.30;99.90;;;;;;5069817;28;20045;-62
2021/12/25 13:35:38;;;;;;;5.00;1.55;;;-1.20;99.90;;;;;;5069000;28;20056;-63
2021/12/25 13:38:05;;;;;;;6.13;1.60;;;-1.30;99.90;;;;;;5070851;28;20049;-63
2021/12/25 13:40:31;;;;;;;5.82;1.42;;;-1.30;99.90;;;;;;5071725;28;20045;-62
2021/12/25 13:43:05;;;;;;;3.22;1.17;;;-1.40;99.90;;;;;;5070260;28;20071;-63
2021/12/25 13:45:31;;;;;;;5.28;1.80;;;-1.40;99.90;;;;;;5072423;28;20124;-62
2021/12/25 13:47:57;;;;;;;5.00;1.38;;;-1.40;99.90;;;;;;5076630;28;20072;-63
2021/12/25 13:50:24;;;;;;;5.38;1.33;;;-1.40;99.90;;;;;;5067232;28;20051;-64
2021/12/25 13:52:58;;;;;;;3.55;1.25;;;-1.40;99.90;;;;;;5095743;28;20044;-62
2021/12/25 13:55:34;;;;;;;6.47;1.70;;;-1.50;99.90;;;;;;5082654;28;20059;-62
2021/12/25 13:58:09;;;;;;;4.30;1.50;;;-1.50;99.90;;;;;;5077214;28;20078;-61
2021/12/25 14:00:46;;;;;;;5.97;1.90;;;-1.50;99.90;;;;;;5077261;28;20047;-62
2021/12/25 14:03:21;;;;;;;5.68;1.88;;;-1.50;99.90;;;;;;5078144;28;20060;-63
2021/12/25 14:05:52;;;;;;;4.25;1.25;;;-1.50;99.90;;;;;;5077788;28;20048;-62
2021/12/25 14:08:23;;;;;;;4.07;0.90;;;-1.50;99.90;;;;;;5077020;28;20520;-63
2021/12/25 14:10:50;;;;;;;7.03;1.60;;;-1.50;99.90;;;;;;5077754;28;20666;-63
2021/12/25 14:13:18;;;;;;;5.28;1.30;;;-1.50;99.90;;;;;;5078685;28;20060;-62
2021/12/25 14:15:51;;;;;;;6.03;1.80;;;-1.50;99.90;;;;;;5078499;28;20642;-62
2021/12/25 14:18:19;;;;;;;6.53;2.20;;;-1.50;99.90;;;;;;5078469;28;20048;-62
2021/12/25 14:20:45;;;;;;;5.80;1.98;;;-1.50;99.90;;;;;;5078551;28;20048;-62
2021/12/25 14:23:15;;;;;;;5.60;1.50;;;-1.50;99.90;;;;;;5078954;28;20040;-63